CXA8017 ZSFZ-ZGGG
Flight info
| Callsign | CXA8017 |
|---|---|
| Flight time | 1h 21m |
| Altitude | 27600 |
| Route | DOVPU W643 ATSAB A470 BEBEM R200 GUBLO W22 IDUMA |
| Aircraft | B738/M-SDE2E3FGHIRWXY/LB1 |
Departure
| Time | 2026-04-22 09:12 |
|---|---|
| Airport | Fuzhou Changle International Airport (ZSFZ) |
Arrival
| Time | 2026-04-22 10:33 |
|---|---|
| Airport | Guangzhou Baiyun International Airport (ZGGG) |
| Time | Latitude | Longitude | Altitude | Speed | Heading |
|---|---|---|---|---|---|
| 2026-04-22 08:48 | 25.92832 | 119.66460 | 56 ft | 0 kts | 142° |
| 2026-04-22 09:01 | 25.92834 | 119.66459 | 56 ft | 1 kts | 142° |
| 2026-04-22 09:01 | 25.92845 | 119.66448 | 56 ft | 2 kts | 142° |
| 2026-04-22 09:01 | 25.92857 | 119.66438 | 56 ft | 2 kts | 142° |
| 2026-04-22 09:02 | 25.92869 | 119.66428 | 56 ft | 2 kts | 142° |
| 2026-04-22 09:02 | 25.92881 | 119.66418 | 56 ft | 2 kts | 142° |
| 2026-04-22 09:02 | 25.92893 | 119.66408 | 56 ft | 2 kts | 142° |
| 2026-04-22 09:02 | 25.92903 | 119.66395 | 56 ft | 2 kts | 109° |
| 2026-04-22 09:03 | 25.92905 | 119.66378 | 56 ft | 2 kts | 83° |
| 2026-04-22 09:03 | 25.92900 | 119.66363 | 56 ft | 2 kts | 54° |
| 2026-04-22 09:03 | 25.92889 | 119.66351 | 56 ft | 2 kts | 26° |
| 2026-04-22 09:03 | 25.92881 | 119.66348 | 56 ft | 1 kts | 23° |
| 2026-04-22 09:04 | 25.92880 | 119.66348 | 56 ft | 0 kts | 23° |
| 2026-04-22 09:05 | 25.92892 | 119.66353 | 56 ft | 6 kts | 26° |
| 2026-04-22 09:06 | 25.92954 | 119.66361 | 56 ft | 9 kts | 323° |
| 2026-04-22 09:06 | 25.92992 | 119.66311 | 56 ft | 7 kts | 338° |
| 2026-04-22 09:06 | 25.93056 | 119.66328 | 56 ft | 12 kts | 27° |
| 2026-04-22 09:06 | 25.93151 | 119.66382 | 56 ft | 18 kts | 26° |
| 2026-04-22 09:07 | 25.93275 | 119.66453 | 56 ft | 20 kts | 27° |
| 2026-04-22 09:07 | 25.93397 | 119.66521 | 55 ft | 19 kts | 27° |
| 2026-04-22 09:07 | 25.93522 | 119.66591 | 55 ft | 22 kts | 27° |
| 2026-04-22 09:07 | 25.93679 | 119.66679 | 55 ft | 27 kts | 27° |
| 2026-04-22 09:08 | 25.93865 | 119.66784 | 55 ft | 32 kts | 27° |
| 2026-04-22 09:08 | 25.94081 | 119.66905 | 55 ft | 37 kts | 27° |
| 2026-04-22 09:08 | 25.94312 | 119.67036 | 55 ft | 35 kts | 27° |
| 2026-04-22 09:08 | 25.94509 | 119.67148 | 55 ft | 28 kts | 27° |
| 2026-04-22 09:09 | 25.94673 | 119.67239 | 55 ft | 25 kts | 27° |
| 2026-04-22 09:09 | 25.94807 | 119.67314 | 55 ft | 16 kts | 26° |
| 2026-04-22 09:09 | 25.94871 | 119.67272 | 55 ft | 10 kts | 297° |
| 2026-04-22 09:09 | 25.94878 | 119.67258 | 55 ft | 0 kts | 297° |
| 2026-04-22 09:10 | 25.94882 | 119.67249 | 55 ft | 5 kts | 297° |
| 2026-04-22 09:10 | 25.94912 | 119.67167 | 55 ft | 12 kts | 262° |
| 2026-04-22 09:10 | 25.94856 | 119.67119 | 55 ft | 8 kts | 206° |
| 2026-04-22 09:11 | 25.94837 | 119.67109 | 55 ft | 7 kts | 207° |
| 2026-04-22 09:11 | 25.94612 | 119.66981 | 55 ft | 72 kts | 207° |
| 2026-04-22 09:11 | 25.93960 | 119.66614 | 56 ft | 135 kts | 207° |
| 2026-04-22 09:11 | 25.93000 | 119.66074 | 311 ft | 163 kts | 205° |
| 2026-04-22 09:12 | 25.92020 | 119.65571 | 1224 ft | 152 kts | 206° |
| 2026-04-22 09:12 | 25.91130 | 119.65084 | 2053 ft | 141 kts | 206° |
| 2026-04-22 09:12 | 25.90226 | 119.64548 | 2439 ft | 154 kts | 207° |
| 2026-04-22 09:12 | 25.89283 | 119.64009 | 2939 ft | 158 kts | 207° |
| 2026-04-22 09:13 | 25.88265 | 119.63429 | 3370 ft | 169 kts | 208° |
| 2026-04-22 09:13 | 25.87151 | 119.62799 | 3733 ft | 187 kts | 208° |
| 2026-04-22 09:13 | 25.85952 | 119.62125 | 4153 ft | 204 kts | 209° |
| 2026-04-22 09:13 | 25.84643 | 119.61388 | 4665 ft | 217 kts | 209° |
| 2026-04-22 09:14 | 25.83251 | 119.60606 | 5144 ft | 232 kts | 209° |
| 2026-04-22 09:14 | 25.81768 | 119.59769 | 5650 ft | 245 kts | 210° |
| 2026-04-22 09:14 | 25.80208 | 119.58889 | 6113 ft | 260 kts | 210° |
| 2026-04-22 09:14 | 25.78594 | 119.57976 | 6894 ft | 261 kts | 212° |
| 2026-04-22 09:15 | 25.77154 | 119.56786 | 7660 ft | 260 kts | 228° |
| 2026-04-22 09:15 | 25.75947 | 119.55340 | 8480 ft | 259 kts | 231° |
| 2026-04-22 09:15 | 25.74734 | 119.53871 | 9250 ft | 263 kts | 231° |
| 2026-04-22 09:15 | 25.73485 | 119.52394 | 10048 ft | 266 kts | 231° |
| 2026-04-22 09:16 | 25.72171 | 119.50846 | 10494 ft | 282 kts | 231° |
| 2026-04-22 09:16 | 25.70793 | 119.49218 | 10975 ft | 296 kts | 231° |
| 2026-04-22 09:16 | 25.69352 | 119.47519 | 11388 ft | 312 kts | 230° |
| 2026-04-22 09:16 | 25.67830 | 119.45727 | 11829 ft | 327 kts | 231° |
| 2026-04-22 09:17 | 25.66257 | 119.43872 | 12400 ft | 336 kts | 230° |
| 2026-04-22 09:17 | 25.64636 | 119.41967 | 13204 ft | 338 kts | 231° |
| 2026-04-22 09:17 | 25.63021 | 119.40070 | 13894 ft | 343 kts | 230° |
| 2026-04-22 09:17 | 25.61379 | 119.38135 | 14608 ft | 347 kts | 231° |
| 2026-04-22 09:18 | 25.59724 | 119.36184 | 15307 ft | 351 kts | 231° |
| 2026-04-22 09:18 | 25.58046 | 119.34206 | 16023 ft | 354 kts | 230° |
| 2026-04-22 09:18 | 25.56347 | 119.32209 | 16667 ft | 360 kts | 230° |
| 2026-04-22 09:18 | 25.54616 | 119.30176 | 17332 ft | 363 kts | 230° |
| 2026-04-22 09:19 | 25.52884 | 119.28141 | 17957 ft | 368 kts | 230° |
| 2026-04-22 09:19 | 25.51136 | 119.26090 | 18589 ft | 371 kts | 231° |
| 2026-04-22 09:19 | 25.49338 | 119.23981 | 19168 ft | 377 kts | 231° |
| 2026-04-22 09:19 | 25.47541 | 119.21873 | 19731 ft | 381 kts | 231° |
| 2026-04-22 09:20 | 25.45702 | 119.19717 | 20323 ft | 385 kts | 231° |
| 2026-04-22 09:20 | 25.43866 | 119.17562 | 20863 ft | 389 kts | 231° |
| 2026-04-22 09:20 | 25.41994 | 119.15369 | 21343 ft | 395 kts | 231° |
| 2026-04-22 09:20 | 25.40104 | 119.13156 | 21907 ft | 398 kts | 231° |
| 2026-04-22 09:21 | 25.38194 | 119.10919 | 22369 ft | 403 kts | 231° |
| 2026-04-22 09:21 | 25.36262 | 119.08662 | 22886 ft | 407 kts | 231° |
| 2026-04-22 09:21 | 25.34306 | 119.06385 | 23481 ft | 408 kts | 231° |
| 2026-04-22 09:21 | 25.32377 | 119.04146 | 24095 ft | 409 kts | 231° |
| 2026-04-22 09:22 | 25.30387 | 119.01836 | 24553 ft | 413 kts | 231° |
| 2026-04-22 09:22 | 25.28445 | 118.99496 | 25083 ft | 414 kts | 233° |
| 2026-04-22 09:22 | 25.26673 | 118.97032 | 25778 ft | 409 kts | 238° |
| 2026-04-22 09:22 | 25.25135 | 118.94450 | 26571 ft | 402 kts | 243° |
| 2026-04-22 09:23 | 25.23749 | 118.91785 | 27188 ft | 399 kts | 244° |
| 2026-04-22 09:23 | 25.22414 | 118.89052 | 27349 ft | 405 kts | 245° |
| 2026-04-22 09:23 | 25.21104 | 118.86313 | 27361 ft | 402 kts | 246° |
| 2026-04-22 09:23 | 25.19804 | 118.83594 | 27367 ft | 398 kts | 246° |
| 2026-04-22 09:24 | 25.18512 | 118.80901 | 27369 ft | 397 kts | 246° |
| 2026-04-22 09:24 | 25.17234 | 118.78230 | 27371 ft | 397 kts | 246° |
| 2026-04-22 09:24 | 25.16263 | 118.75427 | 27368 ft | 392 kts | 260° |
| 2026-04-22 09:24 | 25.16110 | 118.72436 | 27379 ft | 390 kts | 275° |
| 2026-04-22 09:25 | 25.16482 | 118.69475 | 27383 ft | 391 kts | 277° |
| 2026-04-22 09:25 | 25.16680 | 118.66512 | 27380 ft | 390 kts | 271° |
| 2026-04-22 09:25 | 25.16536 | 118.63509 | 27384 ft | 390 kts | 265° |
| 2026-04-22 09:25 | 25.16066 | 118.60555 | 27386 ft | 393 kts | 257° |
| 2026-04-22 09:26 | 25.15100 | 118.57754 | 27393 ft | 397 kts | 248° |
| 2026-04-22 09:26 | 25.13730 | 118.55078 | 27394 ft | 399 kts | 241° |
| 2026-04-22 09:26 | 25.12119 | 118.52602 | 27397 ft | 402 kts | 236° |
| 2026-04-22 09:26 | 25.10344 | 118.50214 | 27395 ft | 405 kts | 234° |
| 2026-04-22 09:27 | 25.08476 | 118.47872 | 27400 ft | 405 kts | 233° |
| 2026-04-22 09:27 | 25.06566 | 118.45576 | 27396 ft | 404 kts | 232° |
| 2026-04-22 09:27 | 25.04647 | 118.43321 | 27393 ft | 405 kts | 232° |
| 2026-04-22 09:27 | 25.02721 | 118.41079 | 27393 ft | 407 kts | 231° |
| 2026-04-22 09:28 | 25.00759 | 118.38808 | 27391 ft | 406 kts | 231° |
| 2026-04-22 09:28 | 24.98804 | 118.36556 | 27390 ft | 406 kts | 231° |
| 2026-04-22 09:28 | 24.96846 | 118.34307 | 27391 ft | 407 kts | 231° |
| 2026-04-22 09:28 | 24.94897 | 118.32072 | 27389 ft | 405 kts | 231° |
| 2026-04-22 09:29 | 24.92936 | 118.29825 | 27392 ft | 405 kts | 231° |
| 2026-04-22 09:29 | 24.90976 | 118.27580 | 27388 ft | 405 kts | 231° |
| 2026-04-22 09:29 | 24.89010 | 118.25332 | 27391 ft | 407 kts | 231° |
| 2026-04-22 09:29 | 24.87050 | 118.23095 | 27387 ft | 406 kts | 231° |
| 2026-04-22 09:30 | 24.85102 | 118.20873 | 27391 ft | 407 kts | 231° |
| 2026-04-22 09:30 | 24.83132 | 118.18624 | 27392 ft | 408 kts | 231° |
| 2026-04-22 09:30 | 24.81150 | 118.16363 | 27399 ft | 408 kts | 231° |
| 2026-04-22 09:30 | 24.79185 | 118.14125 | 27401 ft | 408 kts | 231° |
| 2026-04-22 09:31 | 24.77206 | 118.11873 | 27405 ft | 407 kts | 231° |
| 2026-04-22 09:31 | 24.75236 | 118.09631 | 27404 ft | 407 kts | 231° |
| 2026-04-22 09:31 | 24.73259 | 118.07383 | 27407 ft | 409 kts | 231° |
| 2026-04-22 09:31 | 24.71306 | 118.05164 | 27408 ft | 409 kts | 230° |
| 2026-04-22 09:32 | 24.69323 | 118.02912 | 27409 ft | 407 kts | 231° |
| 2026-04-22 09:32 | 24.67344 | 118.00667 | 27405 ft | 407 kts | 230° |
| 2026-04-22 09:32 | 24.65378 | 117.98438 | 27408 ft | 409 kts | 231° |
| 2026-04-22 09:32 | 24.63383 | 117.96175 | 27402 ft | 409 kts | 231° |
| 2026-04-22 09:33 | 24.61421 | 117.93937 | 27398 ft | 408 kts | 231° |
| 2026-04-22 09:33 | 24.59475 | 117.91631 | 27393 ft | 408 kts | 232° |
| 2026-04-22 09:33 | 24.57578 | 117.89325 | 27388 ft | 408 kts | 233° |
| 2026-04-22 09:33 | 24.55690 | 117.87018 | 27390 ft | 408 kts | 232° |
| 2026-04-22 09:34 | 24.53783 | 117.84693 | 27384 ft | 408 kts | 233° |
| 2026-04-22 09:34 | 24.51877 | 117.82376 | 27386 ft | 408 kts | 232° |
| 2026-04-22 09:34 | 24.49970 | 117.80064 | 27385 ft | 409 kts | 232° |
| 2026-04-22 09:35 | 24.46146 | 117.75443 | 27384 ft | 407 kts | 232° |
| 2026-04-22 09:35 | 24.44242 | 117.73149 | 27381 ft | 408 kts | 232° |
| 2026-04-22 09:35 | 24.42323 | 117.70837 | 27386 ft | 410 kts | 232° |
| 2026-04-22 09:35 | 24.40388 | 117.68507 | 27389 ft | 411 kts | 232° |
| 2026-04-22 09:36 | 24.38467 | 117.66196 | 27392 ft | 410 kts | 232° |
| 2026-04-22 09:36 | 24.36556 | 117.63900 | 27398 ft | 410 kts | 232° |
| 2026-04-22 09:36 | 24.34629 | 117.61584 | 27404 ft | 411 kts | 232° |
| 2026-04-22 09:36 | 24.32688 | 117.59252 | 27406 ft | 409 kts | 232° |
| 2026-04-22 09:37 | 24.30786 | 117.56971 | 27414 ft | 409 kts | 232° |
| 2026-04-22 09:37 | 24.28862 | 117.54662 | 27421 ft | 410 kts | 232° |
| 2026-04-22 09:37 | 24.26929 | 117.52339 | 27427 ft | 411 kts | 232° |
| 2026-04-22 09:37 | 24.24992 | 117.50016 | 27437 ft | 410 kts | 232° |
| 2026-04-22 09:38 | 24.23072 | 117.47716 | 27442 ft | 408 kts | 232° |
| 2026-04-22 09:38 | 24.21157 | 117.45422 | 27445 ft | 409 kts | 232° |
| 2026-04-22 09:38 | 24.19196 | 117.43144 | 27448 ft | 411 kts | 230° |
| 2026-04-22 09:38 | 24.17132 | 117.40997 | 27452 ft | 412 kts | 227° |
| 2026-04-22 09:39 | 24.14991 | 117.38901 | 27453 ft | 413 kts | 226° |
| 2026-04-22 09:39 | 24.12831 | 117.36825 | 27452 ft | 414 kts | 226° |
| 2026-04-22 09:39 | 24.10662 | 117.34737 | 27450 ft | 414 kts | 226° |
| 2026-04-22 09:39 | 24.08504 | 117.32651 | 27446 ft | 414 kts | 226° |
| 2026-04-22 09:40 | 24.06350 | 117.30558 | 27442 ft | 413 kts | 226° |
| 2026-04-22 09:40 | 24.04198 | 117.28462 | 27436 ft | 414 kts | 226° |
| 2026-04-22 09:40 | 24.02038 | 117.26354 | 27432 ft | 415 kts | 226° |
| 2026-04-22 09:40 | 23.99894 | 117.24260 | 27424 ft | 414 kts | 226° |
| 2026-04-22 09:41 | 23.97743 | 117.22161 | 27420 ft | 413 kts | 226° |
| 2026-04-22 09:41 | 23.95595 | 117.20065 | 27418 ft | 414 kts | 226° |
| 2026-04-22 09:41 | 23.93438 | 117.17959 | 27415 ft | 414 kts | 226° |
| 2026-04-22 09:41 | 23.91303 | 117.15874 | 27414 ft | 415 kts | 226° |
| 2026-04-22 09:42 | 23.89122 | 117.13746 | 27412 ft | 415 kts | 226° |
| 2026-04-22 09:42 | 23.86988 | 117.11666 | 27408 ft | 414 kts | 226° |
| 2026-04-22 09:42 | 23.84829 | 117.09563 | 27405 ft | 414 kts | 226° |
| 2026-04-22 09:42 | 23.82649 | 117.07439 | 27401 ft | 415 kts | 226° |
| 2026-04-22 09:43 | 23.80538 | 117.05306 | 27399 ft | 413 kts | 229° |
| 2026-04-22 09:43 | 23.78519 | 117.03065 | 27396 ft | 413 kts | 231° |
| 2026-04-22 09:43 | 23.76561 | 117.00793 | 27397 ft | 412 kts | 231° |
| 2026-04-22 09:43 | 23.74597 | 116.98496 | 27397 ft | 411 kts | 231° |
| 2026-04-22 09:44 | 23.72662 | 116.96241 | 27399 ft | 412 kts | 231° |
| 2026-04-22 09:44 | 23.70674 | 116.93941 | 27404 ft | 412 kts | 231° |
| 2026-04-22 09:44 | 23.68625 | 116.91583 | 27404 ft | 412 kts | 231° |
| 2026-04-22 09:44 | 23.66565 | 116.89223 | 27412 ft | 413 kts | 231° |
| 2026-04-22 09:45 | 23.64470 | 116.86832 | 27412 ft | 413 kts | 231° |
| 2026-04-22 09:45 | 23.62463 | 116.84545 | 27410 ft | 414 kts | 231° |
| 2026-04-22 09:45 | 23.60446 | 116.82249 | 27411 ft | 414 kts | 231° |
| 2026-04-22 09:45 | 23.58478 | 116.80013 | 27406 ft | 414 kts | 230° |
| 2026-04-22 09:46 | 23.56480 | 116.77746 | 27403 ft | 414 kts | 230° |
| 2026-04-22 09:46 | 23.54476 | 116.75474 | 27402 ft | 414 kts | 230° |
| 2026-04-22 09:46 | 23.52481 | 116.73215 | 27401 ft | 414 kts | 230° |
| 2026-04-22 09:46 | 23.50461 | 116.70956 | 27397 ft | 414 kts | 229° |
| 2026-04-22 09:47 | 23.48297 | 116.68838 | 27398 ft | 418 kts | 224° |
| 2026-04-22 09:47 | 23.46021 | 116.66859 | 27401 ft | 419 kts | 222° |
| 2026-04-22 09:47 | 23.43730 | 116.64955 | 27402 ft | 418 kts | 222° |
| 2026-04-22 09:47 | 23.41388 | 116.63032 | 27404 ft | 417 kts | 221° |
| 2026-04-22 09:48 | 23.39080 | 116.61140 | 27404 ft | 418 kts | 222° |
| 2026-04-22 09:48 | 23.36747 | 116.59221 | 27400 ft | 418 kts | 221° |
| 2026-04-22 09:48 | 23.34415 | 116.57296 | 27399 ft | 419 kts | 222° |
| 2026-04-22 09:48 | 23.32081 | 116.55367 | 27396 ft | 418 kts | 222° |
| 2026-04-22 09:49 | 23.29773 | 116.53457 | 27394 ft | 419 kts | 222° |
| 2026-04-22 09:49 | 23.27462 | 116.51543 | 27392 ft | 420 kts | 222° |
| 2026-04-22 09:49 | 23.25112 | 116.49598 | 27392 ft | 419 kts | 222° |
| 2026-04-22 09:49 | 23.22807 | 116.47691 | 27393 ft | 418 kts | 222° |
| 2026-04-22 09:50 | 23.20502 | 116.45784 | 27393 ft | 418 kts | 222° |
| 2026-04-22 09:50 | 23.18172 | 116.43856 | 27396 ft | 418 kts | 222° |
| 2026-04-22 09:50 | 23.15860 | 116.41944 | 27397 ft | 419 kts | 222° |
| 2026-04-22 09:50 | 23.13529 | 116.40018 | 27397 ft | 419 kts | 222° |
| 2026-04-22 09:51 | 23.11195 | 116.38091 | 27398 ft | 419 kts | 222° |
| 2026-04-22 09:51 | 23.08899 | 116.36196 | 27400 ft | 419 kts | 222° |
| 2026-04-22 09:51 | 23.06549 | 116.34258 | 27400 ft | 419 kts | 221° |
| 2026-04-22 09:51 | 23.04294 | 116.32303 | 27393 ft | 416 kts | 227° |
| 2026-04-22 09:52 | 23.02522 | 116.29874 | 27398 ft | 409 kts | 244° |
| 2026-04-22 09:52 | 23.01526 | 116.26997 | 27406 ft | 404 kts | 260° |
| 2026-04-22 09:52 | 23.01170 | 116.24006 | 27408 ft | 402 kts | 268° |
| 2026-04-22 09:52 | 23.01068 | 116.20999 | 27407 ft | 401 kts | 270° |
| 2026-04-22 09:53 | 23.00990 | 116.17967 | 27403 ft | 400 kts | 269° |
| 2026-04-22 09:53 | 23.00861 | 116.14932 | 27406 ft | 401 kts | 268° |
| 2026-04-22 09:53 | 23.00682 | 116.11955 | 27407 ft | 401 kts | 267° |
| 2026-04-22 09:53 | 23.00456 | 116.08938 | 27407 ft | 402 kts | 266° |
| 2026-04-22 09:54 | 23.00195 | 116.05890 | 27406 ft | 401 kts | 266° |
| 2026-04-22 09:54 | 22.99919 | 116.02901 | 27407 ft | 401 kts | 266° |
| 2026-04-22 09:54 | 22.99627 | 115.99882 | 27409 ft | 402 kts | 265° |
| 2026-04-22 09:54 | 22.99325 | 115.96861 | 27411 ft | 402 kts | 265° |
| 2026-04-22 09:55 | 22.99022 | 115.93887 | 27410 ft | 402 kts | 265° |
| 2026-04-22 09:55 | 22.98709 | 115.90846 | 27411 ft | 402 kts | 265° |
| 2026-04-22 09:55 | 22.98400 | 115.87869 | 27410 ft | 401 kts | 265° |
| 2026-04-22 09:55 | 22.98089 | 115.84864 | 27408 ft | 401 kts | 265° |
| 2026-04-22 09:56 | 22.97785 | 115.81846 | 27410 ft | 401 kts | 265° |
| 2026-04-22 09:56 | 22.97489 | 115.78869 | 27404 ft | 400 kts | 265° |
| 2026-04-22 09:56 | 22.97189 | 115.75849 | 27402 ft | 401 kts | 265° |
| 2026-04-22 09:56 | 22.96892 | 115.72862 | 27404 ft | 401 kts | 265° |
| 2026-04-22 09:57 | 22.96587 | 115.69824 | 27411 ft | 402 kts | 265° |
| 2026-04-22 09:57 | 22.96287 | 115.66834 | 27417 ft | 401 kts | 265° |
| 2026-04-22 09:57 | 22.95982 | 115.63816 | 27425 ft | 401 kts | 265° |
| 2026-04-22 09:57 | 22.95678 | 115.60820 | 27435 ft | 401 kts | 265° |
| 2026-04-22 09:58 | 22.95373 | 115.57806 | 27444 ft | 401 kts | 265° |
| 2026-04-22 09:58 | 22.95067 | 115.54787 | 27452 ft | 402 kts | 265° |
| 2026-04-22 09:58 | 22.94762 | 115.51784 | 27458 ft | 401 kts | 265° |
| 2026-04-22 09:58 | 22.94455 | 115.48780 | 27461 ft | 401 kts | 265° |
| 2026-04-22 09:59 | 22.94149 | 115.45791 | 27461 ft | 402 kts | 265° |
| 2026-04-22 09:59 | 22.93841 | 115.42795 | 27457 ft | 401 kts | 265° |
| 2026-04-22 09:59 | 22.93529 | 115.39768 | 27453 ft | 401 kts | 265° |
| 2026-04-22 09:59 | 22.93118 | 115.36797 | 27450 ft | 403 kts | 262° |
| 2026-04-22 10:00 | 22.92549 | 115.33823 | 27443 ft | 404 kts | 259° |
| 2026-04-22 10:00 | 22.91915 | 115.30832 | 27439 ft | 404 kts | 259° |
| 2026-04-22 10:00 | 22.91283 | 115.27887 | 27436 ft | 403 kts | 259° |
| 2026-04-22 10:00 | 22.90654 | 115.24921 | 27433 ft | 403 kts | 259° |
| 2026-04-22 10:01 | 22.90037 | 115.21955 | 27432 ft | 403 kts | 259° |
| 2026-04-22 10:01 | 22.89431 | 115.19000 | 27434 ft | 404 kts | 259° |
| 2026-04-22 10:01 | 22.88826 | 115.16019 | 27437 ft | 404 kts | 259° |
| 2026-04-22 10:01 | 22.88231 | 115.13065 | 27439 ft | 403 kts | 259° |
| 2026-04-22 10:02 | 22.87632 | 115.10081 | 27442 ft | 402 kts | 259° |
| 2026-04-22 10:02 | 22.87039 | 115.07134 | 27445 ft | 403 kts | 259° |
| 2026-04-22 10:02 | 22.86442 | 115.04169 | 27447 ft | 403 kts | 260° |
| 2026-04-22 10:02 | 22.85846 | 115.01208 | 27449 ft | 403 kts | 260° |
| 2026-04-22 10:03 | 22.85254 | 114.98259 | 27447 ft | 404 kts | 260° |
| 2026-04-22 10:03 | 22.84654 | 114.95273 | 27446 ft | 404 kts | 259° |
| 2026-04-22 10:03 | 22.84061 | 114.92329 | 27442 ft | 402 kts | 259° |
| 2026-04-22 10:03 | 22.83464 | 114.89371 | 27439 ft | 402 kts | 259° |
| 2026-04-22 10:04 | 22.82868 | 114.86423 | 27436 ft | 402 kts | 259° |
| 2026-04-22 10:04 | 22.82269 | 114.83458 | 27432 ft | 403 kts | 259° |
| 2026-04-22 10:04 | 22.81673 | 114.80503 | 27426 ft | 404 kts | 259° |
| 2026-04-22 10:04 | 22.81066 | 114.77505 | 27422 ft | 404 kts | 260° |
| 2026-04-22 10:05 | 22.80468 | 114.74556 | 27421 ft | 404 kts | 260° |
| 2026-04-22 10:05 | 22.79865 | 114.71582 | 27417 ft | 405 kts | 260° |
| 2026-04-22 10:05 | 22.79259 | 114.68599 | 27411 ft | 405 kts | 260° |
| 2026-04-22 10:05 | 22.78662 | 114.65653 | 27407 ft | 405 kts | 259° |
| 2026-04-22 10:06 | 22.78057 | 114.62674 | 27406 ft | 405 kts | 260° |
| 2026-04-22 10:06 | 22.77452 | 114.59698 | 27402 ft | 405 kts | 260° |
| 2026-04-22 10:06 | 22.76846 | 114.56729 | 27401 ft | 403 kts | 260° |
| 2026-04-22 10:06 | 22.76251 | 114.53775 | 27401 ft | 403 kts | 261° |
| 2026-04-22 10:07 | 22.75787 | 114.50803 | 27402 ft | 403 kts | 264° |
| 2026-04-22 10:07 | 22.75453 | 114.47799 | 27402 ft | 403 kts | 265° |
| 2026-04-22 10:07 | 22.75171 | 114.44795 | 27403 ft | 402 kts | 266° |
| 2026-04-22 10:07 | 22.74891 | 114.41755 | 27405 ft | 401 kts | 266° |
| 2026-04-22 10:08 | 22.74608 | 114.38766 | 27409 ft | 402 kts | 266° |
| 2026-04-22 10:08 | 22.74315 | 114.35755 | 27411 ft | 402 kts | 266° |
| 2026-04-22 10:08 | 22.74018 | 114.32761 | 27413 ft | 402 kts | 265° |
| 2026-04-22 10:08 | 22.73715 | 114.29753 | 27413 ft | 401 kts | 265° |
| 2026-04-22 10:09 | 22.73411 | 114.26768 | 27414 ft | 402 kts | 265° |
| 2026-04-22 10:09 | 22.73104 | 114.23780 | 27413 ft | 401 kts | 265° |
| 2026-04-22 10:09 | 22.72793 | 114.20769 | 27411 ft | 401 kts | 265° |
| 2026-04-22 10:09 | 22.72491 | 114.17777 | 27407 ft | 401 kts | 266° |
| 2026-04-22 10:10 | 22.72372 | 114.14765 | 27405 ft | 400 kts | 272° |
| 2026-04-22 10:10 | 22.72678 | 114.11764 | 27405 ft | 400 kts | 282° |
| 2026-04-22 10:10 | 22.73500 | 114.08917 | 27406 ft | 400 kts | 292° |
| 2026-04-22 10:10 | 22.74701 | 114.06218 | 27400 ft | 399 kts | 298° |
| 2026-04-22 10:11 | 22.76201 | 114.03657 | 27396 ft | 399 kts | 306° |
| 2026-04-22 10:11 | 22.78072 | 114.01485 | 27395 ft | 402 kts | 316° |
| 2026-04-22 10:11 | 22.80360 | 113.99663 | 27210 ft | 404 kts | 325° |
| 2026-04-22 10:11 | 22.82808 | 113.98201 | 26962 ft | 401 kts | 330° |
| 2026-04-22 10:12 | 22.85359 | 113.96961 | 26713 ft | 397 kts | 333° |
| 2026-04-22 10:12 | 22.87932 | 113.95918 | 26467 ft | 396 kts | 339° |
| 2026-04-22 10:12 | 22.90614 | 113.95184 | 26222 ft | 398 kts | 344° |
| 2026-04-22 10:12 | 22.93327 | 113.94672 | 25979 ft | 399 kts | 347° |
| 2026-04-22 10:13 | 22.96093 | 113.94256 | 25732 ft | 399 kts | 348° |
| 2026-04-22 10:13 | 22.98867 | 113.93878 | 25483 ft | 398 kts | 348° |
| 2026-04-22 10:13 | 23.01596 | 113.93516 | 25191 ft | 391 kts | 348° |
| 2026-04-22 10:13 | 23.04281 | 113.93159 | 24735 ft | 387 kts | 348° |
| 2026-04-22 10:14 | 23.06922 | 113.92804 | 24205 ft | 385 kts | 348° |
| 2026-04-22 10:14 | 23.09582 | 113.92442 | 23666 ft | 383 kts | 348° |
| 2026-04-22 10:14 | 23.12245 | 113.92078 | 23118 ft | 382 kts | 348° |
| 2026-04-22 10:14 | 23.14848 | 113.91721 | 22579 ft | 381 kts | 348° |
| 2026-04-22 10:15 | 23.17487 | 113.91358 | 22031 ft | 380 kts | 348° |
| 2026-04-22 10:15 | 23.20116 | 113.90997 | 21477 ft | 379 kts | 348° |
| 2026-04-22 10:15 | 23.22710 | 113.90641 | 20935 ft | 378 kts | 348° |
| 2026-04-22 10:15 | 23.25330 | 113.90281 | 20385 ft | 377 kts | 348° |
| 2026-04-22 10:16 | 23.27916 | 113.89924 | 19833 ft | 376 kts | 348° |
| 2026-04-22 10:16 | 23.30501 | 113.89569 | 19567 ft | 366 kts | 348° |
| 2026-04-22 10:16 | 23.32998 | 113.89226 | 19065 ft | 364 kts | 348° |
| 2026-04-22 10:16 | 23.35527 | 113.88877 | 18569 ft | 362 kts | 348° |
| 2026-04-22 10:17 | 23.38031 | 113.88532 | 18101 ft | 359 kts | 348° |
| 2026-04-22 10:17 | 23.40476 | 113.88194 | 17655 ft | 355 kts | 348° |
| 2026-04-22 10:17 | 23.42918 | 113.87856 | 17172 ft | 353 kts | 348° |
| 2026-04-22 10:17 | 23.45364 | 113.87517 | 16715 ft | 351 kts | 348° |
| 2026-04-22 10:18 | 23.47778 | 113.87183 | 16063 ft | 355 kts | 348° |
| 2026-04-22 10:18 | 23.50263 | 113.86836 | 15237 ft | 363 kts | 348° |
| 2026-04-22 10:18 | 23.52755 | 113.86489 | 14561 ft | 366 kts | 348° |
| 2026-04-22 10:18 | 23.55291 | 113.86138 | 13956 ft | 365 kts | 348° |
| 2026-04-22 10:19 | 23.57809 | 113.85788 | 13394 ft | 363 kts | 347° |
| 2026-04-22 10:19 | 23.60255 | 113.85210 | 12853 ft | 355 kts | 337° |
| 2026-04-22 10:19 | 23.62401 | 113.84039 | 12345 ft | 342 kts | 318° |
| 2026-04-22 10:19 | 23.63974 | 113.82164 | 11859 ft | 330 kts | 298° |
| 2026-04-22 10:20 | 23.64812 | 113.79875 | 11394 ft | 322 kts | 283° |
| 2026-04-22 10:20 | 23.65295 | 113.77537 | 10975 ft | 317 kts | 281° |
| 2026-04-22 10:20 | 23.65778 | 113.75218 | 10787 ft | 304 kts | 282° |
| 2026-04-22 10:20 | 23.66273 | 113.73013 | 10543 ft | 296 kts | 283° |
| 2026-04-22 10:21 | 23.66766 | 113.70891 | 10380 ft | 284 kts | 282° |
| 2026-04-22 10:21 | 23.67241 | 113.68858 | 10273 ft | 272 kts | 282° |
| 2026-04-22 10:21 | 23.67699 | 113.66882 | 10172 ft | 260 kts | 282° |
| 2026-04-22 10:21 | 23.68134 | 113.64992 | 9971 ft | 253 kts | 282° |
| 2026-04-22 10:22 | 23.68551 | 113.63191 | 9855 ft | 243 kts | 282° |
| 2026-04-22 10:22 | 23.68963 | 113.61408 | 9596 ft | 238 kts | 283° |
| 2026-04-22 10:22 | 23.69363 | 113.59682 | 9332 ft | 232 kts | 282° |
| 2026-04-22 10:22 | 23.69754 | 113.57998 | 9068 ft | 226 kts | 282° |
| 2026-04-22 10:23 | 23.70134 | 113.56355 | 8827 ft | 221 kts | 282° |
| 2026-04-22 10:23 | 23.70513 | 113.54757 | 8587 ft | 215 kts | 282° |
| 2026-04-22 10:23 | 23.70886 | 113.53228 | 8356 ft | 207 kts | 283° |
| 2026-04-22 10:23 | 23.71236 | 113.51739 | 8134 ft | 200 kts | 281° |
| 2026-04-22 10:24 | 23.71565 | 113.50275 | 7914 ft | 193 kts | 281° |
| 2026-04-22 10:24 | 23.71885 | 113.48891 | 7729 ft | 185 kts | 281° |
| 2026-04-22 10:24 | 23.72199 | 113.47555 | 7550 ft | 181 kts | 282° |
| 2026-04-22 10:24 | 23.72513 | 113.46196 | 7367 ft | 186 kts | 281° |
| 2026-04-22 10:25 | 23.72831 | 113.44815 | 7153 ft | 190 kts | 281° |
| 2026-04-22 10:25 | 23.73153 | 113.43428 | 6925 ft | 188 kts | 280° |
| 2026-04-22 10:25 | 23.73479 | 113.42052 | 6721 ft | 185 kts | 282° |
| 2026-04-22 10:25 | 23.73798 | 113.40699 | 6546 ft | 185 kts | 278° |
| 2026-04-22 10:26 | 23.73870 | 113.39298 | 6329 ft | 188 kts | 259° |
| 2026-04-22 10:26 | 23.73353 | 113.38007 | 6094 ft | 186 kts | 233° |
| 2026-04-22 10:26 | 23.72428 | 113.37039 | 5860 ft | 185 kts | 220° |
| 2026-04-22 10:26 | 23.71293 | 113.36361 | 5620 ft | 189 kts | 200° |
| 2026-04-22 10:27 | 23.69991 | 113.36120 | 5390 ft | 190 kts | 190° |
| 2026-04-22 10:27 | 23.68702 | 113.35857 | 5139 ft | 188 kts | 199° |
| 2026-04-22 10:27 | 23.67459 | 113.35429 | 4892 ft | 189 kts | 200° |
| 2026-04-22 10:27 | 23.66172 | 113.35069 | 4653 ft | 192 kts | 196° |
| 2026-04-22 10:28 | 23.64857 | 113.34755 | 4407 ft | 189 kts | 196° |
| 2026-04-22 10:28 | 23.63593 | 113.34399 | 4170 ft | 187 kts | 198° |
| 2026-04-22 10:28 | 23.62334 | 113.34045 | 3939 ft | 188 kts | 196° |
| 2026-04-22 10:28 | 23.61051 | 113.33702 | 3696 ft | 188 kts | 196° |
| 2026-04-22 10:29 | 23.59776 | 113.33359 | 3449 ft | 186 kts | 196° |
| 2026-04-22 10:29 | 23.58516 | 113.33020 | 3208 ft | 186 kts | 195° |
| 2026-04-22 10:29 | 23.57245 | 113.32677 | 2969 ft | 188 kts | 195° |
| 2026-04-22 10:29 | 23.55967 | 113.32334 | 2723 ft | 187 kts | 195° |
| 2026-04-22 10:30 | 23.54714 | 113.31998 | 2605 ft | 186 kts | 194° |
| 2026-04-22 10:30 | 23.53435 | 113.31654 | 2520 ft | 190 kts | 193° |
| 2026-04-22 10:30 | 23.52157 | 113.31306 | 2199 ft | 184 kts | 196° |
| 2026-04-22 10:30 | 23.50959 | 113.30983 | 1973 ft | 171 kts | 194° |
| 2026-04-22 10:31 | 23.49844 | 113.30688 | 1771 ft | 159 kts | 195° |
| 2026-04-22 10:31 | 23.48810 | 113.30409 | 1597 ft | 143 kts | 194° |
| 2026-04-22 10:31 | 23.47842 | 113.30151 | 1366 ft | 142 kts | 194° |
| 2026-04-22 10:31 | 23.46886 | 113.29894 | 1204 ft | 144 kts | 194° |
| 2026-04-22 10:32 | 23.45899 | 113.29632 | 1009 ft | 145 kts | 193° |
| 2026-04-22 10:32 | 23.44914 | 113.29382 | 814 ft | 143 kts | 194° |
| 2026-04-22 10:32 | 23.43962 | 113.29118 | 630 ft | 142 kts | 195° |
| 2026-04-22 10:32 | 23.42992 | 113.28841 | 419 ft | 143 kts | 195° |
| 2026-04-22 10:33 | 23.42020 | 113.28586 | 247 ft | 143 kts | 194° |
| 2026-04-22 10:33 | 23.41053 | 113.28333 | 103 ft | 143 kts | 194° |
| 2026-04-22 10:33 | 23.40149 | 113.28087 | 55 ft | 107 kts | 193° |
| 2026-04-22 10:33 | 23.39667 | 113.27959 | 55 ft | 37 kts | 194° |
| 2026-04-22 10:34 | 23.39473 | 113.27907 | 55 ft | 27 kts | 193° |
| 2026-04-22 10:34 | 23.39294 | 113.27875 | 55 ft | 24 kts | 179° |
| 2026-04-22 10:34 | 23.39132 | 113.27897 | 55 ft | 22 kts | 159° |
| 2026-04-22 10:34 | 23.38991 | 113.27934 | 55 ft | 20 kts | 175° |
| 2026-04-22 10:35 | 23.38858 | 113.27919 | 55 ft | 18 kts | 194° |
| 2026-04-22 10:35 | 23.38737 | 113.27889 | 55 ft | 17 kts | 193° |
| 2026-04-22 10:35 | 23.38622 | 113.27860 | 55 ft | 16 kts | 193° |
| 2026-04-22 10:35 | 23.38516 | 113.27834 | 55 ft | 15 kts | 194° |
| 2026-04-22 10:36 | 23.38416 | 113.27806 | 54 ft | 14 kts | 194° |
| 2026-04-22 10:36 | 23.38322 | 113.27780 | 54 ft | 13 kts | 193° |
| 2026-04-22 10:36 | 23.38236 | 113.27756 | 54 ft | 12 kts | 194° |
| 2026-04-22 10:36 | 23.38155 | 113.27734 | 54 ft | 11 kts | 193° |
| 2026-04-22 10:37 | 23.38080 | 113.27715 | 54 ft | 10 kts | 191° |
| 2026-04-22 10:37 | 23.38017 | 113.27812 | 54 ft | 8 kts | 104° |
| 2026-04-22 10:37 | 23.38003 | 113.27869 | 54 ft | 8 kts | 105° |
| 2026-04-22 10:38 | 23.37979 | 113.27969 | 55 ft | 16 kts | 105° |
| 2026-04-22 10:38 | 23.37954 | 113.28088 | 55 ft | 15 kts | 88° |
| 2026-04-22 10:38 | 23.38025 | 113.28149 | 55 ft | 13 kts | 18° |
| 2026-04-22 10:38 | 23.38106 | 113.28191 | 55 ft | 12 kts | 30° |
| 2026-04-22 10:39 | 23.38182 | 113.28223 | 55 ft | 10 kts | 349° |
| 2026-04-22 10:39 | 23.38222 | 113.28172 | 55 ft | 9 kts | 284° |
| 2026-04-22 10:39 | 23.38228 | 113.28149 | 55 ft | 0 kts | 283° |
| 2026-04-22 10:41 | 23.38231 | 113.28134 | 55 ft | 5 kts | 283° |
| 2026-04-22 10:41 | 23.38247 | 113.28060 | 55 ft | 14 kts | 283° |
| 2026-04-22 10:42 | 23.38275 | 113.27924 | 54 ft | 21 kts | 283° |
| 2026-04-22 10:42 | 23.38236 | 113.27840 | 54 ft | 9 kts | 197° |
| 2026-04-22 10:42 | 23.38170 | 113.27816 | 54 ft | 12 kts | 193° |
| 2026-04-22 10:42 | 23.38086 | 113.27792 | 54 ft | 12 kts | 195° |
| 2026-04-22 10:43 | 23.38020 | 113.27808 | 54 ft | 10 kts | 111° |
| 2026-04-22 10:43 | 23.38001 | 113.27881 | 54 ft | 9 kts | 101° |
| 2026-04-22 10:43 | 23.37983 | 113.27950 | 54 ft | 11 kts | 105° |
| 2026-04-22 10:43 | 23.37957 | 113.28059 | 55 ft | 16 kts | 105° |
| 2026-04-22 10:44 | 23.37877 | 113.28102 | 55 ft | 14 kts | 192° |
| 2026-04-22 10:44 | 23.37786 | 113.28076 | 55 ft | 13 kts | 194° |
| 2026-04-22 10:44 | 23.37684 | 113.28049 | 55 ft | 17 kts | 194° |
| 2026-04-22 10:44 | 23.37547 | 113.28011 | 55 ft | 23 kts | 194° |
| 2026-04-22 10:45 | 23.37373 | 113.27963 | 55 ft | 28 kts | 194° |
| 2026-04-22 10:45 | 23.37174 | 113.27908 | 55 ft | 28 kts | 194° |
| 2026-04-22 10:45 | 23.37009 | 113.27871 | 54 ft | 20 kts | 181° |
| 2026-04-22 10:45 | 23.36901 | 113.27938 | 54 ft | 18 kts | 118° |
| 2026-04-22 10:46 | 23.36861 | 113.28067 | 54 ft | 17 kts | 104° |
| 2026-04-22 10:46 | 23.36832 | 113.28192 | 55 ft | 16 kts | 104° |
| 2026-04-22 10:46 | 23.36821 | 113.28313 | 55 ft | 15 kts | 77° |
| 2026-04-22 10:46 | 23.36882 | 113.28406 | 55 ft | 16 kts | 33° |
| 2026-04-22 10:47 | 23.37004 | 113.28447 | 55 ft | 19 kts | 13° |
| 2026-04-22 10:47 | 23.37132 | 113.28481 | 55 ft | 18 kts | 14° |
| 2026-04-22 10:47 | 23.37255 | 113.28515 | 55 ft | 17 kts | 12° |
| 2026-04-22 10:47 | 23.37371 | 113.28545 | 55 ft | 16 kts | 14° |
| 2026-04-22 10:48 | 23.37494 | 113.28578 | 55 ft | 19 kts | 13° |
| 2026-04-22 10:48 | 23.37644 | 113.28619 | 55 ft | 24 kts | 14° |
| 2026-04-22 10:48 | 23.37818 | 113.28665 | 55 ft | 25 kts | 14° |
| 2026-04-22 10:48 | 23.37988 | 113.28711 | 55 ft | 24 kts | 14° |
| 2026-04-22 10:49 | 23.38152 | 113.28755 | 55 ft | 23 kts | 14° |
| 2026-04-22 10:49 | 23.38308 | 113.28798 | 55 ft | 19 kts | 14° |
| 2026-04-22 10:49 | 23.38435 | 113.28832 | 55 ft | 18 kts | 13° |
| 2026-04-22 10:49 | 23.38556 | 113.28864 | 55 ft | 17 kts | 14° |
| 2026-04-22 10:50 | 23.38671 | 113.28896 | 55 ft | 15 kts | 14° |
| 2026-04-22 10:50 | 23.38703 | 113.28980 | 55 ft | 13 kts | 104° |
| 2026-04-22 10:50 | 23.38690 | 113.29073 | 55 ft | 10 kts | 74° |
| 2026-04-22 10:50 | 23.38677 | 113.29127 | 55 ft | 6 kts | 143° |
| 2026-04-22 10:51 | 23.38649 | 113.29142 | 55 ft | 3 kts | 156° |
| 2026-04-22 10:51 | 23.38640 | 113.29147 | 55 ft | 0 kts | 155° |